sensor_id;sensor_type;location;lat;lon;timestamp;temperature;humidity
67862;DHT22;54665;51.462;6.698;2024-02-23T00:01:10;5.83;88.40
67862;DHT22;54665;51.462;6.698;2024-02-23T00:03:10;5.82;88.18
67862;DHT22;54665;51.462;6.698;2024-02-23T00:05:10;5.66;87.15
67862;DHT22;54665;51.462;6.698;2024-02-23T00:07:11;5.70;86.90
67862;DHT22;54665;51.462;6.698;2024-02-23T00:09:11;5.72;86.90
67862;DHT22;54665;51.462;6.698;2024-02-23T00:11:11;5.70;87.17
67862;DHT22;54665;51.462;6.698;2024-02-23T00:13:12;5.78;87.15
67862;DHT22;54665;51.462;6.698;2024-02-23T00:15:12;5.66;87.49
67862;DHT22;54665;51.462;6.698;2024-02-23T00:17:12;5.68;87.60
67862;DHT22;54665;51.462;6.698;2024-02-23T00:19:13;5.69;87.77
67862;DHT22;54665;51.462;6.698;2024-02-23T00:21:13;5.68;87.46
67862;DHT22;54665;51.462;6.698;2024-02-23T00:23:14;5.75;87.28
67862;DHT22;54665;51.462;6.698;2024-02-23T00:25:14;5.78;87.45
67862;DHT22;54665;51.462;6.698;2024-02-23T00:27:14;5.80;87.61
67862;DHT22;54665;51.462;6.698;2024-02-23T00:29:15;5.85;87.44
67862;DHT22;54665;51.462;6.698;2024-02-23T00:31:15;6.00;87.59
67862;DHT22;54665;51.462;6.698;2024-02-23T00:33:15;6.11;87.29
67862;DHT22;54665;51.462;6.698;2024-02-23T00:35:16;6.06;87.27
67862;DHT22;54665;51.462;6.698;2024-02-23T00:37:16;6.00;86.63
67862;DHT22;54665;51.462;6.698;2024-02-23T00:39:16;6.17;86.79
67862;DHT22;54665;51.462;6.698;2024-02-23T00:41:16;6.11;85.98
67862;DHT22;54665;51.462;6.698;2024-02-23T00:43:19;6.13;85.52
67862;DHT22;54665;51.462;6.698;2024-02-23T00:45:19;6.14;85.32
67862;DHT22;54665;51.462;6.698;2024-02-23T00:47:20;6.13;84.85
67862;DHT22;54665;51.462;6.698;2024-02-23T00:49:20;6.21;84.70
67862;DHT22;54665;51.462;6.698;2024-02-23T00:51:20;6.21;84.79
67862;DHT22;54665;51.462;6.698;2024-02-23T00:53:21;6.29;84.89
67862;DHT22;54665;51.462;6.698;2024-02-23T00:55:21;6.23;84.39
67862;DHT22;54665;51.462;6.698;2024-02-23T00:57:21;6.14;84.57
67862;DHT22;54665;51.462;6.698;2024-02-23T00:59:21;6.13;84.76
67862;DHT22;54665;51.462;6.698;2024-02-23T01:01:22;6.07;84.97
67862;DHT22;54665;51.462;6.698;2024-02-23T01:03:22;5.96;85.00
67862;DHT22;54665;51.462;6.698;2024-02-23T01:05:22;5.97;85.12
67862;DHT22;54665;51.462;6.698;2024-02-23T01:07:23;6.03;85.33
67862;DHT22;54665;51.462;6.698;2024-02-23T01:09:23;6.17;84.78
67862;DHT22;54665;51.462;6.698;2024-02-23T01:11:23;6.14;84.62
67862;DHT22;54665;51.462;6.698;2024-02-23T01:13:24;6.20;84.55
67862;DHT22;54665;51.462;6.698;2024-02-23T01:15:24;6.05;85.03
67862;DHT22;54665;51.462;6.698;2024-02-23T01:17:24;5.97;85.04
67862;DHT22;54665;51.462;6.698;2024-02-23T01:19:24;6.23;84.42
67862;DHT22;54665;51.462;6.698;2024-02-23T01:21:25;6.19;84.16
67862;DHT22;54665;51.462;6.698;2024-02-23T01:23:25;6.27;83.92
67862;DHT22;54665;51.462;6.698;2024-02-23T01:25:26;6.24;84.44
67862;DHT22;54665;51.462;6.698;2024-02-23T01:27:26;6.19;84.05
67862;DHT22;54665;51.462;6.698;2024-02-23T01:29:26;6.27;84.24
67862;DHT22;54665;51.462;6.698;2024-02-23T01:31:27;6.21;84.47
67862;DHT22;54665;51.462;6.698;2024-02-23T01:33:27;6.13;84.50
67862;DHT22;54665;51.462;6.698;2024-02-23T01:35:27;6.09;84.89
67862;DHT22;54665;51.462;6.698;2024-02-23T01:37:27;5.96;84.62
67862;DHT22;54665;51.462;6.698;2024-02-23T01:39:28;6.00;84.84
67862;DHT22;54665;51.462;6.698;2024-02-23T01:41:28;5.82;84.92
67862;DHT22;54665;51.462;6.698;2024-02-23T01:43:28;5.93;84.24
67862;DHT22;54665;51.462;6.698;2024-02-23T01:45:29;5.99;84.24
67862;DHT22;54665;51.462;6.698;2024-02-23T01:47:29;6.06;83.72
67862;DHT22;54665;51.462;6.698;2024-02-23T01:49:30;6.09;83.73
67862;DHT22;54665;51.462;6.698;2024-02-23T01:51:31;6.02;83.99
67862;DHT22;54665;51.462;6.698;2024-02-23T01:53:32;6.06;84.27
67862;DHT22;54665;51.462;6.698;2024-02-23T01:55:32;6.17;83.61
67862;DHT22;54665;51.462;6.698;2024-02-23T01:57:33;6.36;83.35
67862;DHT22;54665;51.462;6.698;2024-02-23T01:59:35;6.31;83.20
67862;DHT22;54665;51.462;6.698;2024-02-23T02:01:35;6.34;82.93
67862;DHT22;54665;51.462;6.698;2024-02-23T02:03:38;6.41;82.58
67862;DHT22;54665;51.462;6.698;2024-02-23T02:05:39;6.34;82.75
67862;DHT22;54665;51.462;6.698;2024-02-23T02:07:42;6.40;81.96
67862;DHT22;54665;51.462;6.698;2024-02-23T02:09:42;6.44;82.18
67862;DHT22;54665;51.462;6.698;2024-02-23T02:11:49;6.36;81.77
67862;DHT22;54665;51.462;6.698;2024-02-23T02:13:49;6.48;81.68
67862;DHT22;54665;51.462;6.698;2024-02-23T02:15:49;6.57;81.36
67862;DHT22;54665;51.462;6.698;2024-02-23T02:17:49;6.51;81.79
67862;DHT22;54665;51.462;6.698;2024-02-23T02:19:50;6.42;81.97
67862;DHT22;54665;51.462;6.698;2024-02-23T02:21:50;6.48;81.90
67862;DHT22;54665;51.462;6.698;2024-02-23T02:23:51;6.40;82.48
67862;DHT22;54665;51.462;6.698;2024-02-23T02:25:55;6.36;82.67
67862;DHT22;54665;51.462;6.698;2024-02-23T02:27:56;6.37;82.50
67862;DHT22;54665;51.462;6.698;2024-02-23T02:29:56;6.26;82.57
67862;DHT22;54665;51.462;6.698;2024-02-23T02:31:56;6.10;82.88
67862;DHT22;54665;51.462;6.698;2024-02-23T02:33:56;6.19;82.57
67862;DHT22;54665;51.462;6.698;2024-02-23T02:35:57;6.29;82.63
67862;DHT22;54665;51.462;6.698;2024-02-23T02:37:57;6.09;83.00
67862;DHT22;54665;51.462;6.698;2024-02-23T02:39:57;6.03;83.19
67862;DHT22;54665;51.462;6.698;2024-02-23T02:41:58;6.10;82.86
67862;DHT22;54665;51.462;6.698;2024-02-23T02:43:58;6.16;82.96
67862;DHT22;54665;51.462;6.698;2024-02-23T02:45:58;6.20;82.89
67862;DHT22;54665;51.462;6.698;2024-02-23T02:48:03;5.99;83.24
67862;DHT22;54665;51.462;6.698;2024-02-23T02:50:04;6.00;83.26
67862;DHT22;54665;51.462;6.698;2024-02-23T02:52:04;6.02;83.14
67862;DHT22;54665;51.462;6.698;2024-02-23T02:54:06;5.96;83.35
67862;DHT22;54665;51.462;6.698;2024-02-23T02:56:06;5.79;83.28
67862;DHT22;54665;51.462;6.698;2024-02-23T02:58:06;5.93;83.43
67862;DHT22;54665;51.462;6.698;2024-02-23T03:00:10;6.05;82.84
67862;DHT22;54665;51.462;6.698;2024-02-23T03:02:10;5.90;83.33
67862;DHT22;54665;51.462;6.698;2024-02-23T03:04:11;6.00;82.76
67862;DHT22;54665;51.462;6.698;2024-02-23T03:06:11;5.95;82.82
67862;DHT22;54665;51.462;6.698;2024-02-23T03:08:12;5.78;83.13
67862;DHT22;54665;51.462;6.698;2024-02-23T03:10:12;5.85;82.87
67862;DHT22;54665;51.462;6.698;2024-02-23T03:12:12;5.92;82.81
67862;DHT22;54665;51.462;6.698;2024-02-23T03:14:13;5.93;82.58
67862;DHT22;54665;51.462;6.698;2024-02-23T03:16:17;5.78;83.29
67862;DHT22;54665;51.462;6.698;2024-02-23T03:18:17;5.69;83.59
67862;DHT22;54665;51.462;6.698;2024-02-23T03:20:18;5.82;83.06
67862;DHT22;54665;51.462;6.698;2024-02-23T03:22:18;5.82;83.07
67862;DHT22;54665;51.462;6.698;2024-02-23T03:24:18;5.72;83.30
67862;DHT22;54665;51.462;6.698;2024-02-23T03:26:19;5.90;83.18
67862;DHT22;54665;51.462;6.698;2024-02-23T03:28:19;5.92;83.00
67862;DHT22;54665;51.462;6.698;2024-02-23T03:30:19;5.92;82.61
67862;DHT22;54665;51.462;6.698;2024-02-23T03:32:19;5.86;82.95
67862;DHT22;54665;51.462;6.698;2024-02-23T03:34:20;5.89;82.71
67862;DHT22;54665;51.462;6.698;2024-02-23T03:36:20;5.73;82.77
67862;DHT22;54665;51.462;6.698;2024-02-23T03:38:20;5.86;82.75
67862;DHT22;54665;51.462;6.698;2024-02-23T03:40:21;5.93;82.71
67862;DHT22;54665;51.462;6.698;2024-02-23T03:42:21;5.96;82.46
67862;DHT22;54665;51.462;6.698;2024-02-23T03:44:21;5.89;82.72
67862;DHT22;54665;51.462;6.698;2024-02-23T03:46:21;5.79;82.73
67862;DHT22;54665;51.462;6.698;2024-02-23T03:48:22;5.73;82.74
67862;DHT22;54665;51.462;6.698;2024-02-23T03:50:22;5.85;83.07
67862;DHT22;54665;51.462;6.698;2024-02-23T03:52:22;5.96;82.28
67862;DHT22;54665;51.462;6.698;2024-02-23T03:54:23;6.03;82.08
67862;DHT22;54665;51.462;6.698;2024-02-23T03:56:23;6.09;82.01
67862;DHT22;54665;51.462;6.698;2024-02-23T03:58:23;6.02;82.12
67862;DHT22;54665;51.462;6.698;2024-02-23T04:00:23;6.00;82.09
67862;DHT22;54665;51.462;6.698;2024-02-23T04:02:24;5.99;81.82
67862;DHT22;54665;51.462;6.698;2024-02-23T04:04:24;5.89;81.94
67862;DHT22;54665;51.462;6.698;2024-02-23T04:06:24;5.83;82.45
67862;DHT22;54665;51.462;6.698;2024-02-23T04:08:25;5.80;82.28
67862;DHT22;54665;51.462;6.698;2024-02-23T04:10:25;5.79;82.34
67862;DHT22;54665;51.462;6.698;2024-02-23T04:12:26;5.89;82.03
67862;DHT22;54665;51.462;6.698;2024-02-23T04:14:26;5.92;81.95
67862;DHT22;54665;51.462;6.698;2024-02-23T04:16:26;6.00;82.11
67862;DHT22;54665;51.462;6.698;2024-02-23T04:18:27;6.14;81.38
67862;DHT22;54665;51.462;6.698;2024-02-23T04:20:27;6.14;81.48
67862;DHT22;54665;51.462;6.698;2024-02-23T04:22:27;6.21;80.95
67862;DHT22;54665;51.462;6.698;2024-02-23T04:24:27;6.27;81.20
67862;DHT22;54665;51.462;6.698;2024-02-23T04:26:28;6.20;81.43
67862;DHT22;54665;51.462;6.698;2024-02-23T04:28:28;6.23;81.12
67862;DHT22;54665;51.462;6.698;2024-02-23T04:30:28;6.36;80.92
67862;DHT22;54665;51.462;6.698;2024-02-23T04:32:29;6.13;80.88
67862;DHT22;54665;51.462;6.698;2024-02-23T04:34:29;6.17;80.74
67862;DHT22;54665;51.462;6.698;2024-02-23T04:36:29;6.19;81.00
67862;DHT22;54665;51.462;6.698;2024-02-23T04:38:30;6.26;80.93
67862;DHT22;54665;51.462;6.698;2024-02-23T04:40:30;6.17;80.99
67862;DHT22;54665;51.462;6.698;2024-02-23T04:42:31;6.13;81.24
67862;DHT22;54665;51.462;6.698;2024-02-23T04:44:31;6.03;81.43
67862;DHT22;54665;51.462;6.698;2024-02-23T04:46:31;5.97;81.34
67862;DHT22;54665;51.462;6.698;2024-02-23T04:48:31;6.17;81.14
67862;DHT22;54665;51.462;6.698;2024-02-23T04:50:32;6.09;81.30
67862;DHT22;54665;51.462;6.698;2024-02-23T04:52:32;6.07;81.01
67862;DHT22;54665;51.462;6.698;2024-02-23T04:54:32;6.10;81.38
67862;DHT22;54665;51.462;6.698;2024-02-23T04:56:33;6.05;81.21
67862;DHT22;54665;51.462;6.698;2024-02-23T04:58:33;6.09;81.07
67862;DHT22;54665;51.462;6.698;2024-02-23T05:00:33;5.93;81.11
67862;DHT22;54665;51.462;6.698;2024-02-23T05:02:34;5.88;81.62
67862;DHT22;54665;51.462;6.698;2024-02-23T05:04:34;5.86;81.33
67862;DHT22;54665;51.462;6.698;2024-02-23T05:06:34;5.97;80.89
67862;DHT22;54665;51.462;6.698;2024-02-23T05:08:34;5.97;81.15
67862;DHT22;54665;51.462;6.698;2024-02-23T05:10:35;5.89;81.22
67862;DHT22;54665;51.462;6.698;2024-02-23T05:12:35;5.90;81.28
67862;DHT22;54665;51.462;6.698;2024-02-23T05:14:35;6.03;80.86
67862;DHT22;54665;51.462;6.698;2024-02-23T05:16:36;6.00;81.12
67862;DHT22;54665;51.462;6.698;2024-02-23T05:18:36;5.99;80.62
67862;DHT22;54665;51.462;6.698;2024-02-23T05:20:36;6.02;80.77
67862;DHT22;54665;51.462;6.698;2024-02-23T05:22:38;5.90;80.68
67862;DHT22;54665;51.462;6.698;2024-02-23T05:24:38;5.97;80.67
67862;DHT22;54665;51.462;6.698;2024-02-23T05:26:38;6.03;80.56
67862;DHT22;54665;51.462;6.698;2024-02-23T05:28:39;6.06;80.19
67862;DHT22;54665;51.462;6.698;2024-02-23T05:30:39;6.00;80.59
67862;DHT22;54665;51.462;6.698;2024-02-23T05:32:39;6.00;80.39
67862;DHT22;54665;51.462;6.698;2024-02-23T05:34:40;6.10;80.04
67862;DHT22;54665;51.462;6.698;2024-02-23T05:36:40;6.07;80.18
67862;DHT22;54665;51.462;6.698;2024-02-23T05:38:40;6.07;80.10
67862;DHT22;54665;51.462;6.698;2024-02-23T05:40:41;5.97;80.81
67862;DHT22;54665;51.462;6.698;2024-02-23T05:42:41;5.96;80.97
67862;DHT22;54665;51.462;6.698;2024-02-23T05:44:45;6.00;80.76
67862;DHT22;54665;51.462;6.698;2024-02-23T05:46:46;5.96;80.83
67862;DHT22;54665;51.462;6.698;2024-02-23T05:48:46;6.00;80.95
67862;DHT22;54665;51.462;6.698;2024-02-23T05:50:46;6.06;80.94
67862;DHT22;54665;51.462;6.698;2024-02-23T05:52:47;5.97;80.84
67862;DHT22;54665;51.462;6.698;2024-02-23T05:54:47;6.13;80.79
67862;DHT22;54665;51.462;6.698;2024-02-23T05:56:48;6.09;80.48
67862;DHT22;54665;51.462;6.698;2024-02-23T05:58:48;6.21;80.83
67862;DHT22;54665;51.462;6.698;2024-02-23T06:00:48;6.29;80.77
67862;DHT22;54665;51.462;6.698;2024-02-23T06:02:49;6.48;80.49
67862;DHT22;54665;51.462;6.698;2024-02-23T06:04:49;6.33;80.96
67862;DHT22;54665;51.462;6.698;2024-02-23T06:06:49;6.44;80.73
67862;DHT22;54665;51.462;6.698;2024-02-23T06:08:50;6.42;80.38
67862;DHT22;54665;51.462;6.698;2024-02-23T06:10:50;6.51;80.22
67862;DHT22;54665;51.462;6.698;2024-02-23T06:12:50;6.51;79.87
67862;DHT22;54665;51.462;6.698;2024-02-23T06:14:51;6.63;80.05
67862;DHT22;54665;51.462;6.698;2024-02-23T06:16:51;6.57;79.69
67862;DHT22;54665;51.462;6.698;2024-02-23T06:18:51;6.65;79.53
67862;DHT22;54665;51.462;6.698;2024-02-23T06:20:52;6.60;79.52
67862;DHT22;54665;51.462;6.698;2024-02-23T06:22:52;6.57;79.33
67862;DHT22;54665;51.462;6.698;2024-02-23T06:24:52;6.64;79.65
67862;DHT22;54665;51.462;6.698;2024-02-23T06:26:53;6.72;79.39
67862;DHT22;54665;51.462;6.698;2024-02-23T06:28:53;6.61;79.09
67862;DHT22;54665;51.462;6.698;2024-02-23T06:30:53;6.72;79.35
67862;DHT22;54665;51.462;6.698;2024-02-23T06:32:54;6.64;79.01
67862;DHT22;54665;51.462;6.698;2024-02-23T06:34:54;6.75;79.35
67862;DHT22;54665;51.462;6.698;2024-02-23T06:36:55;6.81;79.18
67862;DHT22;54665;51.462;6.698;2024-02-23T06:38:55;6.71;79.13
67862;DHT22;54665;51.462;6.698;2024-02-23T06:40:56;6.68;79.10
67862;DHT22;54665;51.462;6.698;2024-02-23T06:42:56;6.77;79.36
67862;DHT22;54665;51.462;6.698;2024-02-23T06:44:56;6.65;79.28
67862;DHT22;54665;51.462;6.698;2024-02-23T06:46:57;6.74;79.57
67862;DHT22;54665;51.462;6.698;2024-02-23T06:48:57;6.64;79.68
67862;DHT22;54665;51.462;6.698;2024-02-23T06:50:57;6.52;79.27
67862;DHT22;54665;51.462;6.698;2024-02-23T06:52:58;6.65;79.33
67862;DHT22;54665;51.462;6.698;2024-02-23T06:54:58;6.68;78.43
67862;DHT22;54665;51.462;6.698;2024-02-23T06:56:58;6.71;78.23
67862;DHT22;54665;51.462;6.698;2024-02-23T06:58:58;6.84;78.20
67862;DHT22;54665;51.462;6.698;2024-02-23T07:00:59;6.88;78.00
67862;DHT22;54665;51.462;6.698;2024-02-23T07:02:59;6.96;77.22
67862;DHT22;54665;51.462;6.698;2024-02-23T07:05:00;6.98;77.66
67862;DHT22;54665;51.462;6.698;2024-02-23T07:07:00;7.12;77.29
67862;DHT22;54665;51.462;6.698;2024-02-23T07:09:00;7.08;77.19
67862;DHT22;54665;51.462;6.698;2024-02-23T07:11:01;7.02;77.18
67862;DHT22;54665;51.462;6.698;2024-02-23T07:13:01;7.06;76.90
67862;DHT22;54665;51.462;6.698;2024-02-23T07:15:01;7.15;77.03
67862;DHT22;54665;51.462;6.698;2024-02-23T07:17:02;7.12;76.75
67862;DHT22;54665;51.462;6.698;2024-02-23T07:19:02;7.09;76.78
67862;DHT22;54665;51.462;6.698;2024-02-23T07:21:03;7.10;76.49
67862;DHT22;54665;51.462;6.698;2024-02-23T07:23:04;7.20;76.41
67862;DHT22;54665;51.462;6.698;2024-02-23T07:25:05;7.32;76.53
67862;DHT22;54665;51.462;6.698;2024-02-23T07:27:05;7.26;76.36
67862;DHT22;54665;51.462;6.698;2024-02-23T07:29:07;7.39;76.62
67862;DHT22;54665;51.462;6.698;2024-02-23T07:31:07;7.40;76.07
67862;DHT22;54665;51.462;6.698;2024-02-23T07:33:07;7.51;76.36
67862;DHT22;54665;51.462;6.698;2024-02-23T07:35:08;7.42;76.16
67862;DHT22;54665;51.462;6.698;2024-02-23T07:37:09;7.40;76.69
67862;DHT22;54665;51.462;6.698;2024-02-23T07:39:09;7.30;76.41
67862;DHT22;54665;51.462;6.698;2024-02-23T07:41:12;7.43;76.28
67862;DHT22;54665;51.462;6.698;2024-02-23T07:43:13;7.30;75.52
67862;DHT22;54665;51.462;6.698;2024-02-23T07:45:13;7.40;76.04
67862;DHT22;54665;51.462;6.698;2024-02-23T07:47:13;7.47;75.74
67862;DHT22;54665;51.462;6.698;2024-02-23T07:49:14;7.54;75.87
67862;DHT22;54665;51.462;6.698;2024-02-23T07:51:14;7.54;76.00
67862;DHT22;54665;51.462;6.698;2024-02-23T07:53:14;7.39;75.72
67862;DHT22;54665;51.462;6.698;2024-02-23T07:55:15;7.47;76.03
67862;DHT22;54665;51.462;6.698;2024-02-23T07:57:15;7.63;75.84
67862;DHT22;54665;51.462;6.698;2024-02-23T07:59:15;7.39;75.71
67862;DHT22;54665;51.462;6.698;2024-02-23T08:01:16;7.63;75.83
67862;DHT22;54665;51.462;6.698;2024-02-23T08:03:16;7.71;75.84
67862;DHT22;54665;51.462;6.698;2024-02-23T08:05:16;7.67;75.09
67862;DHT22;54665;51.462;6.698;2024-02-23T08:07:16;7.57;74.60
67862;DHT22;54665;51.462;6.698;2024-02-23T08:09:17;8.05;74.36
67862;DHT22;54665;51.462;6.698;2024-02-23T08:11:17;8.15;74.32
67862;DHT22;54665;51.462;6.698;2024-02-23T08:13:17;8.25;74.08
67862;DHT22;54665;51.462;6.698;2024-02-23T08:15:18;8.41;73.17
67862;DHT22;54665;51.462;6.698;2024-02-23T08:17:18;8.25;74.01
67862;DHT22;54665;51.462;6.698;2024-02-23T08:19:18;8.31;73.27
67862;DHT22;54665;51.462;6.698;2024-02-23T08:21:19;8.64;72.60
67862;DHT22;54665;51.462;6.698;2024-02-23T08:23:19;8.99;71.83
67862;DHT22;54665;51.462;6.698;2024-02-23T08:25:19;9.34;71.63
67862;DHT22;54665;51.462;6.698;2024-02-23T08:27:20;9.03;71.56
67862;DHT22;54665;51.462;6.698;2024-02-23T08:29:20;9.03;71.68
67862;DHT22;54665;51.462;6.698;2024-02-23T08:31:20;8.94;71.91
67862;DHT22;54665;51.462;6.698;2024-02-23T08:33:20;8.99;71.98
67862;DHT22;54665;51.462;6.698;2024-02-23T08:35:21;9.04;71.99
67862;DHT22;54665;51.462;6.698;2024-02-23T08:37:21;8.83;72.00
67862;DHT22;54665;51.462;6.698;2024-02-23T08:39:21;8.64;72.06
67862;DHT22;54665;51.462;6.698;2024-02-23T08:41:22;8.67;71.67
67862;DHT22;54665;51.462;6.698;2024-02-23T08:43:22;8.93;71.10
67862;DHT22;54665;51.462;6.698;2024-02-23T08:45:22;8.90;71.97
67862;DHT22;54665;51.462;6.698;2024-02-23T08:47:22;8.69;71.23
67862;DHT22;54665;51.462;6.698;2024-02-23T08:49:23;8.53;72.29
67862;DHT22;54665;51.462;6.698;2024-02-23T08:51:23;9.21;71.87
67862;DHT22;54665;51.462;6.698;2024-02-23T08:53:23;9.63;70.30
67862;DHT22;54665;51.462;6.698;2024-02-23T08:55:23;9.54;70.15
67862;DHT22;54665;51.462;6.698;2024-02-23T08:57:24;9.32;70.65
67862;DHT22;54665;51.462;6.698;2024-02-23T08:59:24;9.20;70.61
67862;DHT22;54665;51.462;6.698;2024-02-23T09:01:24;9.14;71.37
67862;DHT22;54665;51.462;6.698;2024-02-23T09:03:25;8.84;71.16
67862;DHT22;54665;51.462;6.698;2024-02-23T09:05:25;8.59;71.49
67862;DHT22;54665;51.462;6.698;2024-02-23T09:07:25;8.80;71.54
67862;DHT22;54665;51.462;6.698;2024-02-23T09:09:26;8.88;71.54
67862;DHT22;54665;51.462;6.698;2024-02-23T09:11:26;9.24;71.02
67862;DHT22;54665;51.462;6.698;2024-02-23T09:13:26;9.03;70.85
67862;DHT22;54665;51.462;6.698;2024-02-23T09:15:27;8.87;70.90
67862;DHT22;54665;51.462;6.698;2024-02-23T09:17:27;9.00;71.24
67862;DHT22;54665;51.462;6.698;2024-02-23T09:19:27;8.86;71.15
67862;DHT22;54665;51.462;6.698;2024-02-23T09:21:27;9.11;70.80
67862;DHT22;54665;51.462;6.698;2024-02-23T09:23:28;9.27;70.17
67862;DHT22;54665;51.462;6.698;2024-02-23T09:25:28;9.20;70.09
67862;DHT22;54665;51.462;6.698;2024-02-23T09:27:28;9.13;70.52
67862;DHT22;54665;51.462;6.698;2024-02-23T09:29:29;9.15;70.99
67862;DHT22;54665;51.462;6.698;2024-02-23T09:31:29;8.83;71.82
67862;DHT22;54665;51.462;6.698;2024-02-23T09:33:29;8.91;70.72
67862;DHT22;54665;51.462;6.698;2024-02-23T09:35:29;8.64;71.44
67862;DHT22;54665;51.462;6.698;2024-02-23T09:37:30;8.86;71.33
67862;DHT22;54665;51.462;6.698;2024-02-23T09:39:31;8.69;71.67
67862;DHT22;54665;51.462;6.698;2024-02-23T09:41:31;8.43;71.72
67862;DHT22;54665;51.462;6.698;2024-02-23T09:43:32;8.46;71.75
67862;DHT22;54665;51.462;6.698;2024-02-23T09:45:34;8.67;71.94
67862;DHT22;54665;51.462;6.698;2024-02-23T09:47:34;8.84;71.93
67862;DHT22;54665;51.462;6.698;2024-02-23T09:49:39;8.90;71.67
67862;DHT22;54665;51.462;6.698;2024-02-23T09:51:40;8.90;70.68
67862;DHT22;54665;51.462;6.698;2024-02-23T09:53:41;8.76;70.69
67862;DHT22;54665;51.462;6.698;2024-02-23T09:55:42;9.03;70.56
67862;DHT22;54665;51.462;6.698;2024-02-23T09:57:44;8.96;70.40
67862;DHT22;54665;51.462;6.698;2024-02-23T09:59:46;8.96;70.56
67862;DHT22;54665;51.462;6.698;2024-02-23T10:01:48;8.88;70.40
67862;DHT22;54665;51.462;6.698;2024-02-23T10:03:48;9.00;70.26
67862;DHT22;54665;51.462;6.698;2024-02-23T10:05:49;9.07;70.15
67862;DHT22;54665;51.462;6.698;2024-02-23T10:07:49;9.11;70.20
67862;DHT22;54665;51.462;6.698;2024-02-23T10:09:49;9.13;69.85
67862;DHT22;54665;51.462;6.698;2024-02-23T10:11:53;9.04;70.27
67862;DHT22;54665;51.462;6.698;2024-02-23T10:13:53;9.17;70.43
67862;DHT22;54665;51.462;6.698;2024-02-23T10:15:54;9.37;69.60
67862;DHT22;54665;51.462;6.698;2024-02-23T10:17:54;9.15;70.04
67862;DHT22;54665;51.462;6.698;2024-02-23T10:19:54;9.20;69.54
67862;DHT22;54665;51.462;6.698;2024-02-23T10:21:56;9.46;69.59
67862;DHT22;54665;51.462;6.698;2024-02-23T10:23:56;8.97;69.56
67862;DHT22;54665;51.462;6.698;2024-02-23T10:25:56;8.93;69.77
67862;DHT22;54665;51.462;6.698;2024-02-23T10:27:56;9.07;70.63
67862;DHT22;54665;51.462;6.698;2024-02-23T10:29:57;9.15;70.14
67862;DHT22;54665;51.462;6.698;2024-02-23T10:31:57;9.04;70.02
67862;DHT22;54665;51.462;6.698;2024-02-23T10:33:58;9.20;69.58
67862;DHT22;54665;51.462;6.698;2024-02-23T10:35:59;9.14;69.69
67862;DHT22;54665;51.462;6.698;2024-02-23T10:38:01;9.07;68.69
67862;DHT22;54665;51.462;6.698;2024-02-23T10:40:03;9.25;69.50
67862;DHT22;54665;51.462;6.698;2024-02-23T10:42:09;9.07;69.30
67862;DHT22;54665;51.462;6.698;2024-02-23T10:44:10;9.23;69.81
67862;DHT22;54665;51.462;6.698;2024-02-23T10:46:12;9.13;69.10
67862;DHT22;54665;51.462;6.698;2024-02-23T10:48:12;9.24;69.03
67862;DHT22;54665;51.462;6.698;2024-02-23T10:50:14;9.32;68.26
67862;DHT22;54665;51.462;6.698;2024-02-23T10:52:14;9.42;67.95
67862;DHT22;54665;51.462;6.698;2024-02-23T10:54:15;9.35;68.53
67862;DHT22;54665;51.462;6.698;2024-02-23T10:56:16;9.52;68.44
67862;DHT22;54665;51.462;6.698;2024-02-23T10:58:16;9.85;68.31
67862;DHT22;54665;51.462;6.698;2024-02-23T11:00:17;9.95;67.79
67862;DHT22;54665;51.462;6.698;2024-02-23T11:02:19;9.55;67.49
67862;DHT22;54665;51.462;6.698;2024-02-23T11:04:21;9.44;67.72
67862;DHT22;54665;51.462;6.698;2024-02-23T11:06:27;9.21;68.45
67862;DHT22;54665;51.462;6.698;2024-02-23T11:08:28;9.24;68.45
67862;DHT22;54665;51.462;6.698;2024-02-23T11:10:28;9.31;68.46
67862;DHT22;54665;51.462;6.698;2024-02-23T11:12:29;9.48;68.83
67862;DHT22;54665;51.462;6.698;2024-02-23T11:14:31;9.39;68.43
67862;DHT22;54665;51.462;6.698;2024-02-23T11:16:31;9.31;68.23
67862;DHT22;54665;51.462;6.698;2024-02-23T11:18:34;9.21;68.73
67862;DHT22;54665;51.462;6.698;2024-02-23T11:20:36;9.48;68.84
67862;DHT22;54665;51.462;6.698;2024-02-23T11:22:37;9.23;68.49
67862;DHT22;54665;51.462;6.698;2024-02-23T11:24:42;9.31;68.73
67862;DHT22;54665;51.462;6.698;2024-02-23T11:26:43;9.51;68.77
67862;DHT22;54665;51.462;6.698;2024-02-23T11:28:50;9.30;68.28
67862;DHT22;54665;51.462;6.698;2024-02-23T11:30:51;9.07;68.65
67862;DHT22;54665;51.462;6.698;2024-02-23T11:32:58;9.11;68.75
67862;DHT22;54665;51.462;6.698;2024-02-23T11:35:02;9.17;69.37
67862;DHT22;54665;51.462;6.698;2024-02-23T11:37:09;9.11;69.86
67862;DHT22;54665;51.462;6.698;2024-02-23T11:39:09;9.08;69.53
67862;DHT22;54665;51.462;6.698;2024-02-23T11:41:10;9.11;69.78
67862;DHT22;54665;51.462;6.698;2024-02-23T11:43:10;9.15;70.08
67862;DHT22;54665;51.462;6.698;2024-02-23T11:45:10;9.10;69.79
67862;DHT22;54665;51.462;6.698;2024-02-23T11:47:11;9.21;69.97
67862;DHT22;54665;51.462;6.698;2024-02-23T11:49:11;9.31;69.09
67862;DHT22;54665;51.462;6.698;2024-02-23T11:51:13;9.58;69.25
67862;DHT22;54665;51.462;6.698;2024-02-23T11:53:13;9.56;69.14
67862;DHT22;54665;51.462;6.698;2024-02-23T11:55:18;9.66;68.70
67862;DHT22;54665;51.462;6.698;2024-02-23T11:57:19;9.59;69.55
67862;DHT22;54665;51.462;6.698;2024-02-23T11:59:20;9.58;69.19
67862;DHT22;54665;51.462;6.698;2024-02-23T12:01:20;9.46;70.00
67862;DHT22;54665;51.462;6.698;2024-02-23T12:03:21;9.51;69.73
67862;DHT22;54665;51.462;6.698;2024-02-23T12:05:22;9.51;69.04
67862;DHT22;54665;51.462;6.698;2024-02-23T12:07:22;9.90;69.18
67862;DHT22;54665;51.462;6.698;2024-02-23T12:09:22;10.33;68.73
67862;DHT22;54665;51.462;6.698;2024-02-23T12:11:23;9.93;68.15
67862;DHT22;54665;51.462;6.698;2024-02-23T12:13:23;10.34;67.10
67862;DHT22;54665;51.462;6.698;2024-02-23T12:15:24;10.13;67.17
67862;DHT22;54665;51.462;6.698;2024-02-23T12:17:25;10.36;66.75
67862;DHT22;54665;51.462;6.698;2024-02-23T12:19:25;10.47;67.81
67862;DHT22;54665;51.462;6.698;2024-02-23T12:21:25;10.54;67.68
67862;DHT22;54665;51.462;6.698;2024-02-23T12:23:26;10.13;67.63
67862;DHT22;54665;51.462;6.698;2024-02-23T12:25:26;10.02;68.04
67862;DHT22;54665;51.462;6.698;2024-02-23T12:27:26;10.12;68.90
67862;DHT22;54665;51.462;6.698;2024-02-23T12:29:27;10.00;68.36
67862;DHT22;54665;51.462;6.698;2024-02-23T12:31:27;10.19;68.29
67862;DHT22;54665;51.462;6.698;2024-02-23T12:33:28;10.00;67.93
67862;DHT22;54665;51.462;6.698;2024-02-23T12:35:29;10.17;67.67
67862;DHT22;54665;51.462;6.698;2024-02-23T12:37:34;10.09;68.38
67862;DHT22;54665;51.462;6.698;2024-02-23T12:39:34;10.03;68.03
67862;DHT22;54665;51.462;6.698;2024-02-23T12:41:35;10.05;68.24
67862;DHT22;54665;51.462;6.698;2024-02-23T12:43:35;10.03;68.01
67862;DHT22;54665;51.462;6.698;2024-02-23T12:45:35;10.38;67.00
67862;DHT22;54665;51.462;6.698;2024-02-23T12:47:36;10.10;67.26
67862;DHT22;54665;51.462;6.698;2024-02-23T12:49:36;10.47;67.21
67862;DHT22;54665;51.462;6.698;2024-02-23T12:51:36;10.78;67.14
67862;DHT22;54665;51.462;6.698;2024-02-23T12:53:38;10.65;67.55